Los Lunas, NM (87031)

7:54 PM MDT on September 04, 2015 (GMT -0600)
Luna Edition | | Change Station
CLOSE
Current Station
Personal Weather Station
Location: Los Lunas, NM
Elevation: 4849 ft
Nearby Weather Stations

Elev 4849 ft 34.80 °N, 106.74 °W | Updated 7 minutes ago

Rain
Rain
68.0 °F
Feels Like 68.0 °F
N
0.0
Wind Variable Wind from NNE

Today
High -- | Low -- °F
--% Chance of Precip.
Yesterday
High -- | Low -- °F
Precip. -- in
6:41 AM 7:29 PM
Waning Gibbous, 54% visible
Pressure 30.12 in
Visibility 10.0 miles
Clouds Scattered Clouds 7000 ft
Overcast 9000 ft
Dew Point 60 °F
Humidity 76%
Rainfall 0.02 in
Snow Depth Not available.
UV 0 out of 12
Pollen 6.20 out of 12
Air Quality Not available.
Flu Activity Not available.
METAR KE80 050135Z AUTO 00000KT 10SM -DZ SCT070 OVC090 19/17 A3012 RMK AO2 T01920165
Pressure 30.12 in
Visibility 10.0 miles
Clouds Scattered Clouds 7000 ft
Overcast 9000 ft
Dew Point 60 °F
Humidity 76%
Rainfall 0.02 in
Snow Depth Not available.
UV 0 out of 12
Pollen 6.20 out of 12
Air Quality Not available.
Flu Activity Not available.
METAR KE80 050135Z AUTO 00000KT 10SM -DZ SCT070 OVC090 19/17 A3012 RMK AO2 T01920165

10-Day Weather Forecast

×

Almanac

Astronomy

Sep. 04, 2015 Rise Set
Actual Time
Civil Twilight
Nautical Twilight
Astronomical Twilight
Moon
Length of Visible Light
Length of Day
Tomorrow will be .
, % of the Moon is Illuminated

Today's Extremes

State Highs State Lows

Community

WunderPhotos

Upload Photos

1,852,375 photos uploaded!

WunderBlogs® & News

Nearby

Air Quality

  Air Quality AQ Index Pollutant
Not available.

Snow Depth

Station Depth Elevation

Earthquake Activity

City Distance Mag. Time & Date
Minimum magnitude displayed is 2.5.

Coastal Water Temperatures

Place Temperature

Stations

Nearby Weather Stations

Station Location Temp. Windchill Dew Point Humidity Wind Precip. Elev Updated Type